KDVT/DVT METAR and TAF weather

Enter ICAO airport designator
Station Type Date Time Source
KDVT METAR 2021/01/16 02:53 UTC NOAA

KDVT 160253Z 03003KT 10SM CLR 14/M08 A3006 RMK AO2 SLP170 T01391083 58003


Station Type Date Time Source
KDVT Decoded METAR 2021/01/16 02:53 UTC NOAA

PHOENIX-DEER VALLEY MUN, AZ, United States (KDVT) 33-41N 112-04W 443M
Jan 15, 2021 - 09:53 PM EST / 2021.01.16 0253 UTC
Wind: from the NNE (030 degrees) at 3 MPH (3 KT):0
Visibility: 10 mile(s):0
Sky conditions: clear
Temperature: 57.0 F (13.9 C)
Dew Point: 17.1 F (-8.3 C)
Relative Humidity: 20%
Pressure (altimeter): 30.06 in. Hg (1017 hPa)
Pressure tendency: 0.01 inches (0.3 hPa) lower than three hours ago
ob: KDVT 160253Z 03003KT 10SM CLR 14/M08 A3006 RMK AO2 SLP170 T01391083 58003
cycle: 3

Station Type Date Time Source
KDVT TAF 2021/01/15 18:21 UTC NOAA

TAF KDVT 151720Z 1518/1618 VRB03KT P6SM FEW250
FM152100 26005KT P6SM FEW250
FM160300 04004KT P6SM FEW250

Example: see airport list